VA3DLF Weather Reports


time (UTC)temp
C
wind
direction
speed
KPH
gust
KPH
rain 1hr
cm
rain 24hr
cm
rain mn
cm
humidity
%
barometer
mb
20201124233204 -4 181 3.2 1.6 0.00 9.91 0.00
20201124232155 -4 218 1.6 4.8 0.00 9.91 0.00
20201124231659 -4 201 3.2 1.6 0.00 9.91 0.00
20201124231157 -4 215 4.8 3.2 0.00 9.91 0.00
20201124230656 -4 217 3.2 1.6 0.00 9.91 0.00
20201124224655 -4 170 3.2 1.6 0.00 9.91 0.00
20201124223651 -4 203 3.2 1.6 0.00 9.91 0.00
20201124222654 -4 183 1.6 1.6 0.00 9.91 0.00
20201124222149 -4 217 3.2 4.8 0.00 9.91 0.00
20201124221700 -4 191 3.2 8.0 0.00 9.91 0.00
20201124221151 -4 187 4.8 3.2 0.00 9.91 0.00
20201124220152 -4 201 6.4 4.8 0.00 9.91 0.00
20201124215146 -3 186 1.6 4.8 0.00 9.91 0.00
20201124214650 -3 170 4.8 4.8 0.00 9.91 0.00
20201124213645 -3 179 4.8 4.8 0.00 9.91 0.00
20201124212144 -3 197 3.2 3.2 0.00 9.91 0.00
20201124210142 -2 181 3.2 3.2 0.00 9.91 0.00
20201124205645 -2 181 3.2 3.2 0.00 9.91 0.00
20201124205141 -2 191 1.6 1.6 0.00 9.91 0.00
20201124204143 -2 141 1.6 3.2 0.00 9.91 0.00
20201124202140 -2 253 3.2 8.0 0.00 9.91 0.00
20201124201639 -2 120 3.2 0.0 0.00 9.91 0.00
20201124200638 -2 135 6.4 6.4 0.00 9.91 0.00
20201124200141 -2 219 3.2 4.8 0.00 9.91 0.00
20201124195642 -2 231 4.8 11.3 0.00 9.91 0.00
20201124193638 -2 235 3.2 1.6 0.00 9.91 0.00
20201124193140 -2 136 4.8 4.8 0.00 9.91 0.00
20201124192136 -2 128 8.0 11.3 0.00 9.91 0.00
20201124190138 -2 259 8.0 6.4 0.00 9.91 0.00
20201124185637 -2 170 6.4 3.2 0.00 9.91 0.00
20201124184137 -1 172 8.0 8.0 0.00 9.91 0.00
20201124183634 -1 184 11.3 9.7 0.00 9.91 0.00
20201124183135 -2 187 6.4 6.4 0.00 9.91 0.00
20201124182636 -2 193 9.7 12.9 0.00 9.91 0.00
20201124182135 -2 273 4.8 9.7 0.00 9.91 0.00
20201124181137 -2 117 9.7 9.7 0.00 9.91 0.00
20201124180133 -2 90 6.4 3.2 0.00 9.91 0.00
20201124175637 -2 90 4.8 3.2 0.00 9.91 0.00
20201124174133 -2 146 8.0 6.4 0.00 9.91 0.00
20201124173131 -2 131 8.0 6.4 0.00 9.91 0.00
20201124172635 -2 148 6.4 3.2 0.00 9.91 0.00
20201124171631 -2 142 8.0 11.3 0.00 9.91 0.00
20201124170130 -3 134 9.7 9.7 0.00 9.91 0.00
20201124165631 -3 121 9.7 9.7 0.00 9.91 0.00
20201124165128 -2 115 6.4 6.4 0.00 9.91 0.00
20201124164130 -2 238 3.2 3.2 0.00 9.91 0.00
20201124163631 -2 203 6.4 4.8 0.00 9.91 0.00
20201124163128 -2 204 11.3 6.4 0.00 9.91 0.00
20201124162127 -2 153 6.4 4.8 0.00 9.91 0.00
20201124161130 -2 152 11.3 8.0 0.00 9.91 0.00
20201124155128 -2 132 11.3 9.7 0.00 9.91 0.00
20201124154626 -3 359 0.0 0.0 0.00 9.91 0.00
20201124153625 -3 359 0.0 0.0 0.00 9.91 0.00
20201124152625 -3 142 3.2 16.1 0.00 9.91 0.00
20201124152124 -3 142 0.0 0.0 0.00 9.91 0.00
20201124151126 -3 359 0.0 0.0 0.00 9.91 0.00
20201124145122 -3 146 0.0 0.0 0.00 9.91 0.00
20201124144626 -3 146 0.0 0.0 0.00 9.91 0.00
20201124144123 -3 158 14.5 16.1 0.00 9.91 0.00
20201124143621 -3 160 9.7 11.3 0.00 9.91 0.00
20201124143123 -3 159 14.5 14.5 0.00 9.91 0.00
20201124142123 -3 191 16.1 11.3 0.00 9.91 0.00
20201124141122 -4 173 1.6 1.6 0.00 9.91 0.00
20201124140619 -4 359 9.7 0.0 0.00 9.91 0.00
20201124140122 -4 162 9.7 14.5 0.00 9.91 0.00
20201124135622 -4 359 0.0 0.0 0.00 9.91 0.00
20201124135125 -4 158 6.4 0.0 0.00 9.91 0.00
20201124134119 -4 138 12.9 9.7 0.00 9.91 0.00
20201124133618 -4 129 14.5 0.0 0.00 9.91 0.00
20201124133116 -4 359 11.3 12.9 0.00 9.91 0.00
20201124132617 -3 160 3.2 0.0 0.00 9.91 0.00
20201124131622 -3 359 0.0 0.0 0.00 9.91 0.00
20201124131119 -3 359 0.0 0.0 0.00 9.91 0.00
20201124125115 -3 359 0.0 0.0 0.00 9.91 0.00
20201124124614 -3 359 0.0 0.0 0.00 9.91 0.00
20201124124113 -3 359 0.0 0.0 0.00 9.91 0.00
20201124123610 -3 359 0.0 12.9 0.00 9.91 0.00
20201124123110 -3 359 0.0 0.0 0.00 9.91 0.00
20201124122611 -3 359 0.0 1.6 0.00 9.91 0.00
20201124122111 -3 359 12.9 19.3 0.00 9.91 0.00
20201124121614 -3 115 16.1 11.3 0.00 9.91 0.00
20201124121146 -3 142 14.5 11.3 0.00 9.91 0.00
20201124120608 -3 146 17.7 16.1 0.00 9.91 0.00
20201124120110 -3 125 12.9 14.5 0.00 9.91 0.00
20201124115609 -3 105 14.5 19.3 0.00 9.91 0.00
20201124114612 -3 122 16.1 14.5 0.00 9.91 0.00
20201124113605 -3 142 0.0 12.9 0.00 9.91 0.00
20201124113117 -3 158 16.1 12.9 0.00 9.91 0.00
20201124112606 -3 131 16.1 20.9 0.00 9.91 0.00
20201124112104 -2 138 14.5 14.5 0.00 9.91 0.00
20201124111606 -2 359 0.0 0.0 0.00 9.91 0.00
20201124111107 -2 139 12.9 17.7 0.00 9.91 0.00
20201124110604 -2 129 12.9 9.7 0.00 9.91 0.00
20201124110104 -2 143 17.7 24.1 0.00 9.91 0.00
20201124105606 -1 145 0.0 0.0 0.00 9.91 0.00
20201124105105 -1 101 14.5 11.3 0.00 9.91 0.00
20201124104604 -1 141 19.3 14.5 0.00 9.91 0.00
20201124104105 -1 169 4.8 11.3 0.00 9.91 0.00
20201124103601 -1 108 14.5 14.5 0.00 9.91 0.00
20201124103101 -1 156 0.0 0.0 0.00 9.91 0.00
20201124102602 -1 156 0.0 0.0 0.00 9.91 0.00
20201124102058 -1 156 0.0 0.0 0.00 9.91 0.00
20201124101600 0 156 0.0 0.0 0.00 9.91 0.00
20201124101100 0 156 0.0 0.0 0.00 9.91 0.00
20201124095558 0 156 0.0 0.0 0.00 9.91 0.00
20201124094556 0 150 6.4 9.7 0.00 9.91 0.00
20201124093058 0 111 3.2 3.2 0.00 9.91 0.00
20201124092051 0 66 1.6 0.0 0.00 9.91 0.00
20201124091551 0 79 3.2 1.6 0.00 9.91 0.00
20201124091054 0 63 3.2 4.8 0.00 9.91 0.00
20201124090051 0 65 1.6 1.6 0.00 9.91 0.00
20201124085550 0 45 3.2 3.2 0.00 9.91 0.00
20201124085049 0 73 1.6 1.6 0.00 9.91 0.00
20201124084050 0 51 3.2 3.2 0.00 9.91 0.00
20201124083547 0 82 3.2 3.2 0.00 9.91 0.00
20201124083107 0 101 4.8 1.6 0.00 9.91 0.00
20201124082548 -1 39 0.0 0.0 0.00 9.91 0.00
20201124082054 0 39 0.0 0.0 0.00 9.91 0.00
20201124081052 -1 39 0.0 0.0 0.00 9.91 0.00
20201124080047 -1 25 3.2 4.8 0.00 9.91 0.00
20201124075550 -1 27 1.6 3.2 0.00 9.91 0.00
20201124075047 -1 60 3.2 3.2 0.00 9.91 0.00
20201124074053 -1 169 1.6 1.6 0.00 9.91 0.00
20201124073557 -1 167 0.0 1.6 0.00 9.91 0.00
20201124072044 -1 35 0.0 0.0 0.00 9.91 0.00
20201124071045 -1 35 0.0 0.0 0.00 9.91 0.00
20201124065038 0 35 1.6 0.0 0.00 9.91 0.00
20201124064056 0 62 1.6 0.0 0.00 9.91 0.00
20201124063049 0 32 3.2 4.8 0.00 9.91 0.00
20201124061552 -1 49 3.2 1.6 0.00 9.91 0.00
20201124061042 -1 46 4.8 6.4 0.00 9.91 0.00
20201124060110 -1 21 0.0 0.0 0.00 9.91 0.00
20201124055056 -1 18 0.0 0.0 0.00 9.91 0.00
20201124053531 0 20 0.0 0.0 0.00 9.91 0.00
20201124053032 -1 20 0.0 0.0 0.00 9.91 0.00
20201124052538 0 20 0.0 0.0 0.00 9.91 0.00
20201124052036 0 20 0.0 0.0 0.00 9.91 0.00
20201124051032 0 20 0.0 0.0 0.00 9.91 0.00
20201124050529 0 20 0.0 0.0 0.00 9.91 0.00
20201124050032 0 20 0.0 0.0 0.00 9.91 0.00
20201124045530 0 20 0.0 0.0 0.00 9.91 0.00
20201124045042 0 20 0.0 0.0 0.00 9.91 0.00
20201124044033 0 20 0.0 0.0 0.00 10.41 9.91
20201124043538 0 20 0.0 0.0 0.00 10.41 9.91
20201124043045 0 20 0.0 0.0 0.00 10.41 9.91
20201124042530 0 20 0.0 0.0 0.00 10.41 9.91
20201124042032 0 20 0.0 0.0 0.00 10.41 9.91
20201124041041 0 20 0.0 0.0 0.00 10.41 9.91
20201124040540 0 20 0.0 0.0 0.00 10.41 9.91
20201124040033 0 20 0.0 0.0 0.00 10.41 9.91
20201124035029 0 20 0.0 0.0 0.00 10.41 9.91
20201124034526 0 20 0.0 0.0 0.00 10.41 9.91
20201124034104 0 20 0.0 0.0 0.00 10.41 9.91
20201124033522 0 20 0.0 0.0 0.00 10.41 9.91
20201124033031 0 20 0.0 0.0 0.00 10.41 9.91
20201124032523 0 20 0.0 0.0 0.00 10.41 9.91
20201124032047 0 20 0.0 0.0 0.00 10.41 9.91
20201124031529 0 20 0.0 0.0 0.00 10.41 9.91
20201124031040 0 20 0.0 0.0 0.00 10.41 9.91
20201124030518 0 20 0.0 0.0 0.00 10.41 9.91
20201124030059 0 20 0.0 0.0 0.00 10.41 9.91
20201124025525 0 20 0.0 0.0 0.00 10.41 9.91
20201124025040 0 20 0.0 0.0 0.00 10.41 9.91
20201124024533 0 20 0.0 0.0 0.00 10.41 9.91
20201124024022 0 20 0.0 0.0 0.00 10.41 9.91
20201124023516 0 20 0.0 0.0 0.00 10.41 9.91
20201124023040 0 20 0.0 0.0 0.00 10.41 9.91
20201124022518 0 20 0.0 0.0 0.00 10.41 9.91
20201124021525 0 20 0.0 0.0 0.00 10.41 9.91
20201124021028 0 20 0.0 0.0 0.00 10.41 9.91
20201124020035 0 20 0.0 0.0 0.00 10.41 9.91
20201124015529 0 20 0.0 0.0 0.00 10.41 9.91
20201124014030 0 20 0.0 0.0 0.00 10.41 9.91
20201124013521 0 20 0.0 0.0 0.00 10.41 9.91
20201124013025 0 20 0.0 0.0 0.00 10.41 9.91
20201124012029 0 20 0.0 0.0 0.00 10.41 9.91
20201124011531 0 20 0.0 0.0 0.00 10.41 9.91
20201124011033 0 20 0.0 0.0 0.00 10.41 9.91
20201124010518 0 20 0.0 0.0 0.00 10.41 9.91
20201124010024 0 20 0.0 0.0 0.00 10.41 9.91
20201124005524 0 20 0.0 0.0 0.00 10.41 9.91
20201124005022 0 20 0.0 0.0 0.00 10.41 9.91
20201124004521 0 20 0.0 0.0 0.00 10.41 9.91
20201124003520 0 20 0.0 0.0 0.00 10.41 9.91
20201124003021 0 20 0.0 0.0 0.00 10.41 9.91
20201124002521 0 20 0.0 0.0 0.00 10.41 9.91
20201124002023 0 20 0.0 0.0 0.00 10.41 9.91
20201124001520 0 20 0.0 0.0 0.00 10.41 9.91
20201124001020 0 20 0.0 0.0 0.00 10.41 9.91
20201124000523 0 20 0.0 0.0 0.00 10.41 9.91
20201123235518 0 20 0.0 0.0 0.00 10.41 9.91
20201123235018 0 20 0.0 0.0 0.00 10.41 9.91